createdAt,value
2023-04-18T00:02:34.740Z,38.77
2023-04-18T00:07:40.103Z,37.20
2023-04-18T00:12:44.817Z,37.32
2023-04-18T00:17:49.988Z,37.29
2023-04-18T00:22:56.193Z,35.79
2023-04-18T00:28:01.288Z,35.64
2023-04-18T00:33:06.684Z,35.64
2023-04-18T00:38:11.831Z,35.50
2023-04-18T00:43:18.807Z,35.69
2023-04-18T00:48:25.729Z,34.14
2023-04-18T00:53:32.237Z,33.28
2023-04-18T00:58:37.446Z,32.50
2023-04-18T01:03:42.212Z,32.83
2023-04-18T01:08:47.509Z,32.90
2023-04-18T01:14:08.421Z,33.17
2023-04-18T01:19:14.208Z,32.43
2023-04-18T01:24:19.941Z,31.84
2023-04-18T01:29:26.270Z,31.33
2023-04-18T01:34:33.020Z,31.20
2023-04-18T01:39:38.100Z,30.67
2023-04-18T01:44:43.104Z,30.95
2023-04-18T01:49:51.371Z,30.01
2023-04-18T01:54:56.472Z,30.83
2023-04-18T02:00:02.586Z,30.74
2023-04-18T02:05:07.464Z,31.61
2023-04-18T02:10:16.688Z,30.26
2023-04-18T02:15:24.037Z,29.64
2023-04-18T02:20:33.005Z,29.19
2023-04-18T02:25:40.508Z,28.77
2023-04-18T02:30:47.373Z,28.32
2023-04-18T02:35:52.240Z,28.93
2023-04-18T02:40:58.072Z,28.47
2023-04-18T02:46:04.715Z,28.58
2023-04-18T02:51:11.231Z,27.82
2023-04-18T02:56:20.112Z,29.02
2023-04-18T03:02:03.136Z,28.25
2023-04-18T03:07:11.078Z,27.33
2023-04-18T03:12:17.371Z,26.36
2023-04-18T03:17:22.897Z,26.55
2023-04-18T03:22:28.822Z,27.42
2023-04-18T03:27:36.289Z,26.93
2023-04-18T03:32:43.273Z,26.69
2023-04-18T03:37:48.638Z,24.80
2023-04-18T03:43:01.580Z,26.17
2023-04-18T03:48:08.446Z,25.23
2023-04-18T03:53:18.991Z,25.41
2023-04-18T03:58:25.808Z,24.65
2023-04-18T04:03:32.067Z,24.39
2023-04-18T04:08:39.062Z,23.13
2023-04-18T04:13:44.010Z,24.30
2023-04-18T04:18:52.032Z,24.20
2023-04-18T04:24:02.563Z,24.07
2023-04-18T04:29:13.074Z,22.77
2023-04-18T04:34:20.644Z,23.45
2023-04-18T04:39:25.853Z,22.38
2023-04-18T04:44:50.333Z,23.24
2023-04-18T04:49:55.897Z,18.70
2023-04-18T04:55:01.022Z,20.73
2023-04-18T05:00:09.509Z,23.05
2023-04-18T05:05:14.914Z,21.53
2023-04-18T05:10:20.431Z,22.68
2023-04-18T05:15:26.449Z,22.55
2023-04-18T05:20:31.522Z,22.10
2023-04-18T05:25:37.697Z,21.88
2023-04-18T05:30:42.251Z,19.98
2023-04-18T05:35:46.585Z,20.67
2023-04-18T05:40:52.463Z,21.16
2023-04-18T05:45:58.017Z,21.52
2023-04-18T05:51:04.399Z,21.35
2023-04-18T05:56:09.482Z,21.65
2023-04-18T06:01:16.236Z,20.68
2023-04-18T06:06:21.471Z,20.03
2023-04-18T06:11:26.451Z,20.58
2023-04-18T06:16:31.754Z,20.14
2023-04-18T06:21:37.422Z,19.68
2023-04-18T06:26:42.664Z,19.68
2023-04-18T06:31:48.002Z,20.12
2023-04-18T06:36:53.448Z,19.43
2023-04-18T06:42:00.286Z,19.37
2023-04-18T06:47:06.422Z,18.80
2023-04-18T06:52:11.756Z,18.59
2023-04-18T06:57:16.926Z,19.94
2023-04-18T07:02:21.934Z,18.50
2023-04-18T07:07:27.789Z,18.59
2023-04-18T07:12:32.133Z,18.26
2023-04-18T07:17:38.434Z,18.75
2023-04-18T07:22:44.052Z,18.93
2023-04-18T07:27:49.165Z,18.20
2023-04-18T07:32:54.219Z,15.37
2023-04-18T07:37:58.561Z,17.59
2023-04-18T07:43:03.711Z,16.73
2023-04-18T07:48:08.999Z,17.74
2023-04-18T07:53:14.208Z,17.78
2023-04-18T07:58:19.540Z,17.31
2023-04-18T08:03:24.821Z,17.04
2023-04-18T08:08:29.916Z,16.67
2023-04-18T08:13:35.651Z,17.24
2023-04-18T08:18:40.737Z,17.06
2023-04-18T08:23:45.661Z,17.59
2023-04-18T08:28:50.493Z,16.49
2023-04-18T08:33:55.601Z,17.38
2023-04-18T08:39:00.583Z,17.11
2023-04-18T08:44:06.783Z,16.46
2023-04-18T08:49:12.282Z,16.45
2023-04-18T08:54:17.067Z,20.21
2023-04-18T08:59:22.102Z,17.94
2023-04-18T09:04:37.464Z,18.71
2023-04-18T09:09:43.439Z,17.74
2023-04-18T09:14:52.223Z,18.03
2023-04-18T09:19:58.123Z,17.81
2023-04-18T09:25:03.109Z,18.23
2023-04-18T09:30:09.974Z,18.07
2023-04-18T09:35:27.321Z,19.80
2023-04-18T09:40:33.659Z,19.05
2023-04-18T09:45:39.322Z,19.26
2023-04-18T09:50:46.438Z,18.95
2023-04-18T09:55:57.807Z,20.44
2023-04-18T10:01:04.913Z,20.20
2023-04-18T10:06:11.230Z,20.51
2023-04-18T10:11:18.585Z,20.83
2023-04-18T10:16:24.648Z,20.74
2023-04-18T10:21:32.391Z,21.23
2023-04-18T10:26:51.549Z,21.18
2023-04-18T10:31:56.969Z,21.24
2023-04-18T10:37:08.524Z,21.97
2023-04-18T10:42:13.730Z,21.90
2023-04-18T10:47:22.554Z,21.82
2023-04-18T10:52:28.650Z,22.19
2023-04-18T10:57:44.852Z,22.25
2023-04-18T11:03:01.392Z,22.76
2023-04-18T11:08:07.388Z,23.45
2023-04-18T11:13:14.085Z,24.05
2023-04-18T11:18:19.135Z,23.95
2023-04-18T11:23:26.375Z,24.53
2023-04-18T11:28:31.914Z,24.50
2023-04-18T11:33:40.474Z,24.91
2023-04-18T11:38:45.711Z,24.79
2023-04-18T11:43:51.607Z,23.66
2023-04-18T11:48:57.221Z,24.72
2023-04-18T11:54:03.356Z,25.71
2023-04-18T11:59:12.027Z,26.45
2023-04-18T12:04:18.184Z,28.01
2023-04-18T12:09:28.051Z,28.17
2023-04-18T12:14:35.545Z,28.59
2023-04-18T12:19:48.008Z,28.39
2023-04-18T12:25:32.062Z,27.32
2023-04-18T12:30:38.781Z,29.07
2023-04-18T12:35:45.821Z,29.39
2023-04-18T12:40:55.146Z,29.08
2023-04-18T12:46:01.783Z,29.34
2023-04-18T12:51:09.591Z,30.31
2023-04-18T12:56:20.433Z,29.77
2023-04-18T13:01:25.590Z,29.50
2023-04-18T13:06:31.910Z,29.88
2023-04-18T13:11:38.934Z,30.11
2023-04-18T13:16:46.273Z,29.81
2023-04-18T13:21:52.645Z,30.74
2023-04-18T13:26:58.737Z,30.02
2023-04-18T13:32:04.622Z,30.66
2023-04-18T13:37:11.284Z,30.57
2023-04-18T13:42:17.310Z,30.44
2023-04-18T13:47:23.687Z,30.26
2023-04-18T13:52:31.144Z,30.50
2023-04-18T13:57:42.369Z,30.55
2023-04-18T14:02:48.961Z,30.26
2023-04-18T14:08:03.806Z,30.33
2023-04-18T14:13:10.837Z,30.27
2023-04-18T14:18:17.990Z,30.41
2023-04-18T14:23:25.376Z,30.48
2023-04-18T14:28:32.506Z,31.15
2023-04-18T14:33:39.426Z,30.88
2023-04-18T14:38:55.168Z,29.74
2023-04-18T14:44:02.298Z,30.00
2023-04-18T14:49:09.114Z,29.83
2023-04-18T14:54:14.860Z,30.15
2023-04-18T14:59:21.122Z,31.75
2023-04-18T15:04:27.431Z,30.94
2023-04-18T15:09:39.988Z,31.25
2023-04-18T15:14:45.966Z,31.07
2023-04-18T15:19:51.536Z,31.48
2023-04-18T15:24:58.303Z,31.18
2023-04-18T15:30:06.867Z,32.05
2023-04-18T15:35:14.401Z,32.40
2023-04-18T15:40:21.613Z,30.40
2023-04-18T15:45:28.428Z,31.65
2023-04-18T15:50:35.491Z,33.02
2023-04-18T15:55:41.964Z,31.70
2023-04-18T16:00:48.124Z,31.92
2023-04-18T16:05:54.176Z,32.39
2023-04-18T16:11:00.103Z,32.23
2023-04-18T16:16:07.566Z,31.85
2023-04-18T16:21:17.346Z,31.64
2023-04-18T16:26:22.938Z,32.18
2023-04-18T16:31:28.422Z,32.76
2023-04-18T16:36:39.151Z,32.10
2023-04-18T16:41:45.920Z,31.59
2023-04-18T16:46:51.531Z,32.34
2023-04-18T16:51:58.154Z,32.59
2023-04-18T16:57:04.218Z,32.07
2023-04-18T17:02:11.120Z,32.10
2023-04-18T17:07:18.271Z,32.36
2023-04-18T17:12:23.673Z,32.29
2023-04-18T17:17:29.270Z,32.36
2023-04-18T17:22:36.289Z,31.62
2023-04-18T17:27:42.631Z,33.10
2023-04-18T17:32:48.285Z,32.84
2023-04-18T17:37:54.172Z,32.36
2023-04-18T17:42:59.543Z,32.34
2023-04-18T17:48:05.048Z,33.37
2023-04-18T17:53:10.594Z,33.86
2023-04-18T17:58:18.147Z,33.59
2023-04-18T18:03:23.955Z,33.67
2023-04-18T18:08:30.223Z,33.81
2023-04-18T18:13:36.729Z,33.57
2023-04-18T18:18:43.149Z,33.69
2023-04-18T18:23:48.859Z,34.54
2023-04-18T18:28:55.105Z,34.01
2023-04-18T18:34:01.671Z,34.49
2023-04-18T18:39:07.105Z,34.49
2023-04-18T18:44:13.015Z,34.03
2023-04-18T18:49:19.705Z,34.37
2023-04-18T18:54:24.850Z,32.66
2023-04-18T18:59:31.332Z,35.30
2023-04-18T19:04:36.945Z,34.85
2023-04-18T19:09:41.862Z,33.60
2023-04-18T19:14:48.199Z,34.74
2023-04-18T19:20:01.428Z,35.76
2023-04-18T19:25:07.504Z,35.06
2023-04-18T19:30:13.668Z,34.91
2023-04-18T19:35:20.364Z,35.20
2023-04-18T19:40:28.095Z,35.16
2023-04-18T19:45:34.193Z,35.17
2023-04-18T19:50:43.619Z,35.04
2023-04-18T19:55:49.872Z,34.82
2023-04-18T20:00:55.613Z,36.03
2023-04-18T20:06:01.230Z,35.21
2023-04-18T20:11:10.153Z,35.04
2023-04-18T20:16:19.210Z,35.45
2023-04-18T20:21:24.811Z,36.07
2023-04-18T20:26:30.358Z,35.50
2023-04-18T20:31:37.512Z,35.95
2023-04-18T20:36:43.366Z,35.97
2023-04-18T20:41:52.692Z,35.93
2023-04-18T20:46:58.406Z,36.78
2023-04-18T20:52:03.274Z,36.13
2023-04-18T20:57:08.710Z,35.65
2023-04-18T21:02:14.296Z,36.09
2023-04-18T21:07:20.910Z,36.42
2023-04-18T21:12:26.283Z,36.69
2023-04-18T21:17:32.384Z,36.96
2023-04-18T21:22:37.682Z,36.58
2023-04-18T21:27:43.329Z,35.89
2023-04-18T21:32:51.396Z,37.05
2023-04-18T21:37:57.037Z,36.60
2023-04-18T21:43:02.632Z,36.28
2023-04-18T21:48:10.727Z,37.15
2023-04-18T21:53:18.507Z,38.01
2023-04-18T21:58:24.069Z,37.32
2023-04-18T22:03:31.105Z,36.78
2023-04-18T22:08:37.246Z,37.62
2023-04-18T22:13:45.955Z,35.95
2023-04-18T22:18:50.845Z,37.50
2023-04-18T22:23:56.284Z,35.91
2023-04-18T22:29:01.982Z,38.23
2023-04-18T22:34:07.621Z,36.72
2023-04-18T22:39:13.444Z,36.84
2023-04-18T22:44:19.576Z,37.21
2023-04-18T22:49:25.322Z,36.36
2023-04-18T22:54:30.775Z,36.14
2023-04-18T22:59:36.613Z,36.00
2023-04-18T23:04:43.725Z,35.57
2023-04-18T23:09:49.408Z,35.79
2023-04-18T23:14:55.171Z,35.39
2023-04-18T23:20:00.693Z,35.23
2023-04-18T23:25:06.956Z,34.96
2023-04-18T23:30:12.994Z,35.11
2023-04-18T23:35:19.766Z,35.11
2023-04-18T23:40:25.386Z,34.88
2023-04-18T23:45:30.750Z,35.47
2023-04-18T23:50:39.281Z,35.18
2023-04-18T23:55:45.018Z,34.45
